Tropical Cyclones
[Index]
Main Index Home Page Stock Weather Photos Extreme Storms Discussion Storm News and Storm Chasing Reports Tropical Cyclones / Hurricanes / Typhoons Weather Data and Links Wild Fires / Bushfires Weather Observation Techniques Weather Picture Catalogue Tornado Pictures and Reports Stock Video Footage and DVDs for sale
Season 1988-1989 Tropical Cyclone IVY Track Map
Season 1988-1989 Summaries: [BoM-AU] [JTWC-AU] [JTWC-SIO] [JTWC-SPAC] [JTWC-SH]
<<- Previous TC | JTWC 1988-1989 Season | Next TC ->>

click for intensity scale information  Lat/long Grid: Show Hide

 Date Labels: Show Hide

Joint Typhoon Warning Centre Cyclone Data

Name: IVY

22 Feb 1989 00:00 UTC to 02 Mar 1989 12:00 UTC

    date/time    lat    long     hPa   cat  kts
1989-02-22 00   15.0   170.0                  20          
1989-02-22 06   15.4   169.8                  20          
1989-02-22 12   15.8   169.5                  25          
1989-02-22 18   16.0   169.3                  25          
1989-02-23 00   16.2   169.0                  25          
1989-02-23 06   16.7   168.2                  25          
1989-02-23 12   17.2   167.5                  30          
1989-02-23 18   17.5   166.8                  30          
1989-02-24 00   17.7   166.1                  35          
1989-02-24 06   18.0   166.0                  35          
1989-02-24 12   18.5   166.3            1     40          
1989-02-24 18   18.9   166.7            1     40          
1989-02-25 00   19.3   167.0            1     45          
1989-02-25 06   19.5   167.2            1     50          
1989-02-25 12   19.8   167.3            2     55          
1989-02-25 18   19.9   167.6            2     60          
1989-02-26 00   20.0   168.3            2     65          
1989-02-26 06   20.2   168.7            2     70          
1989-02-26 12   20.5   169.5            3     80          
1989-02-26 18   20.9   170.1            3     90          
1989-02-27 00   21.3   170.8            4    100          
1989-02-27 06   21.5   171.2            3     90          
1989-02-27 12   22.1   171.6            3     90          
1989-02-27 18   22.3   171.9            3     90          
1989-02-28 00   22.6   172.3            3     90          
1989-02-28 06   22.9   172.7            3     85          
1989-02-28 12   23.3   172.9            3     80          
1989-02-28 18   23.8   172.8            2     70          
1989-03-01 00   23.8   172.0            2     60          
1989-03-01 06   23.5   171.4            1     45          
1989-03-01 12   23.0   170.9                  35          
1989-03-01 18   22.5   170.4                  30          
1989-03-02 00   22.3   170.0                  25          
1989-03-02 06   22.3   169.6                  25          
1989-03-02 12   22.3   169.1                  20          
Winds are 1-min average.

Tropical cyclone tracks developed by Michael Bath using data from the Joint Typhoon Warning Centre Best Tracks and Google Maps.


[Australian Severe Weather index] [Copyright Notice] [Email Contacts] [Search This Site] [Privacy Policy]
Document: tropical_cyclone_ivy.htm Updated: 18 September 2016